createdAt,value
2018-07-20T00:01:46.000Z,9.03
2018-07-20T00:04:14.157Z,9.60
2018-07-20T00:06:42.338Z,8.00
2018-07-20T00:09:10.500Z,9.40
2018-07-20T00:11:38.703Z,8.77
2018-07-20T00:14:06.852Z,8.53
2018-07-20T00:16:35.009Z,8.43
2018-07-20T00:19:03.145Z,8.60
2018-07-20T00:21:31.308Z,8.73
2018-07-20T00:23:59.453Z,7.73
2018-07-20T00:26:27.609Z,8.40
2018-07-20T00:28:55.796Z,8.17
2018-07-20T00:31:23.955Z,9.20
2018-07-20T00:33:52.097Z,8.23
2018-07-20T00:36:20.253Z,8.67
2018-07-20T00:38:48.397Z,9.90
2018-07-20T00:41:16.550Z,9.97
2018-07-20T00:43:44.696Z,9.17
2018-07-20T00:46:12.853Z,9.90
2018-07-20T00:48:41.001Z,10.50
2018-07-20T00:51:09.165Z,9.70
2018-07-20T00:53:37.317Z,11.13
2018-07-20T00:56:05.581Z,10.00
2018-07-20T00:58:33.794Z,11.10
2018-07-20T01:01:02.024Z,9.63
2018-07-20T01:03:30.183Z,9.83
2018-07-20T01:05:58.402Z,10.60
2018-07-20T01:08:26.554Z,9.30
2018-07-20T01:10:54.701Z,9.87
2018-07-20T01:13:22.866Z,11.83
2018-07-20T01:15:51.041Z,8.93
2018-07-20T01:18:19.200Z,10.53
2018-07-20T01:20:47.341Z,10.90
2018-07-20T01:23:15.505Z,9.50
2018-07-20T01:25:43.669Z,10.47
2018-07-20T01:28:11.846Z,11.60
2018-07-20T01:30:40.011Z,10.30
2018-07-20T01:33:08.185Z,11.93
2018-07-20T01:35:36.338Z,10.97
2018-07-20T01:38:04.505Z,11.00
2018-07-20T01:40:32.661Z,11.20
2018-07-20T01:43:00.817Z,10.43
2018-07-20T01:45:28.998Z,11.20
2018-07-20T01:47:57.171Z,11.63
2018-07-20T01:50:25.313Z,11.20
2018-07-20T01:52:53.466Z,11.00
2018-07-20T01:55:22.013Z,10.60
2018-07-20T01:57:50.169Z,11.30
2018-07-20T02:00:18.321Z,10.40
2018-07-20T02:02:47.509Z,10.93
2018-07-20T02:05:15.672Z,11.27
2018-07-20T02:07:43.824Z,10.73
2018-07-20T02:10:11.965Z,10.27
2018-07-20T02:12:40.149Z,11.70
2018-07-20T02:15:08.517Z,10.40
2018-07-20T02:17:36.679Z,10.67
2018-07-20T02:20:06.869Z,10.93
2018-07-20T02:22:35.029Z,10.57
2018-07-20T02:25:03.182Z,12.20
2018-07-20T02:27:31.417Z,11.40
2018-07-20T02:29:59.589Z,12.80
2018-07-20T02:32:27.765Z,10.70
2018-07-20T02:34:55.917Z,10.77
2018-07-20T02:37:24.094Z,12.33
2018-07-20T02:39:52.252Z,11.83
2018-07-20T02:42:20.428Z,12.80
2018-07-20T02:44:48.600Z,11.47
2018-07-20T02:47:16.757Z,11.50
2018-07-20T02:49:44.900Z,10.97
2018-07-20T02:52:13.065Z,11.00
2018-07-20T02:54:41.218Z,12.20
2018-07-20T02:57:09.383Z,13.00
2018-07-20T02:59:37.541Z,12.10
2018-07-20T03:02:05.725Z,12.50
2018-07-20T03:04:33.884Z,12.50
2018-07-20T03:07:02.078Z,11.53
2018-07-20T03:09:30.261Z,12.87
2018-07-20T03:11:58.437Z,12.53
2018-07-20T03:14:26.609Z,12.00
2018-07-20T03:16:54.793Z,11.40
2018-07-20T03:19:22.950Z,12.00
2018-07-20T03:21:51.093Z,11.47
2018-07-20T03:24:19.253Z,12.90
2018-07-20T03:26:47.417Z,12.70
2018-07-20T03:29:16.297Z,12.20
2018-07-20T03:31:44.481Z,12.20
2018-07-20T03:34:12.625Z,12.97
2018-07-20T03:36:40.801Z,13.20
2018-07-20T03:39:09.913Z,12.80
2018-07-20T03:41:38.533Z,12.73
2018-07-20T03:44:07.159Z,12.57
2018-07-20T03:47:37.872Z,13.17
2018-07-20T03:50:06.356Z,11.80
2018-07-20T03:52:34.589Z,12.10
2018-07-20T03:55:02.747Z,13.67
2018-07-20T03:57:30.928Z,13.47
2018-07-20T03:59:59.101Z,12.87
2018-07-20T04:02:27.300Z,12.90
2018-07-20T04:04:55.436Z,12.60
2018-07-20T04:07:23.611Z,11.87
2018-07-20T04:09:51.777Z,11.27
2018-07-20T04:12:19.945Z,13.80
2018-07-20T04:14:48.174Z,12.40
2018-07-20T04:17:16.354Z,12.07
2018-07-20T04:19:44.539Z,11.00
2018-07-20T04:22:12.701Z,11.10
2018-07-20T04:24:40.936Z,11.83
2018-07-20T04:27:09.110Z,11.57
2018-07-20T04:29:37.281Z,11.83
2018-07-20T04:32:05.605Z,11.20
2018-07-20T04:34:33.893Z,11.30
2018-07-20T04:37:02.060Z,11.90
2018-07-20T04:39:30.254Z,14.33
2018-07-20T04:41:58.504Z,13.60
2018-07-20T04:44:26.674Z,12.20
2018-07-20T04:46:54.851Z,12.77
2018-07-20T04:49:23.026Z,13.17
2018-07-20T04:51:51.181Z,12.90
2018-07-20T04:54:19.346Z,14.33
2018-07-20T04:56:47.540Z,12.73
2018-07-20T04:59:15.698Z,12.73
2018-07-20T05:01:43.862Z,12.27
2018-07-20T05:04:12.013Z,12.00
2018-07-20T05:06:40.181Z,11.77
2018-07-20T05:09:09.329Z,13.63
2018-07-20T05:11:37.953Z,13.40
2018-07-20T05:14:06.101Z,12.83
2018-07-20T05:16:34.264Z,11.40
2018-07-20T05:19:02.429Z,11.57
2018-07-20T05:21:30.595Z,10.50
2018-07-20T05:23:58.783Z,12.07
2018-07-20T05:26:26.948Z,12.00
2018-07-20T05:28:55.125Z,12.37
2018-07-20T05:31:23.277Z,12.53
2018-07-20T05:33:51.429Z,11.87
2018-07-20T05:36:19.609Z,14.23
2018-07-20T05:38:47.774Z,13.30
2018-07-20T05:41:16.596Z,13.30
2018-07-20T05:43:44.852Z,13.70
2018-07-20T05:46:13.025Z,15.90
2018-07-20T05:48:41.161Z,12.73
2018-07-20T05:51:09.433Z,12.10
2018-07-20T05:53:37.598Z,12.93
2018-07-20T05:56:05.856Z,12.83
2018-07-20T05:58:34.585Z,13.20
2018-07-20T06:01:02.740Z,12.03
2018-07-20T06:03:31.062Z,11.47
2018-07-20T06:05:59.232Z,11.77
2018-07-20T06:08:27.389Z,11.20
2018-07-20T06:10:55.599Z,11.20
2018-07-20T06:13:23.784Z,11.30
2018-07-20T06:15:51.908Z,12.20
2018-07-20T06:18:20.149Z,11.27
2018-07-20T06:20:48.536Z,11.20
2018-07-20T06:23:16.705Z,10.70
2018-07-20T06:25:44.899Z,11.67
2018-07-20T06:28:14.390Z,11.00
2018-07-20T06:30:42.545Z,10.67
2018-07-20T06:33:10.729Z,10.77
2018-07-20T06:35:38.890Z,10.43
2018-07-20T06:38:07.285Z,10.20
2018-07-20T06:40:35.455Z,10.60
2018-07-20T06:43:03.657Z,10.70
2018-07-20T06:45:31.827Z,9.97
2018-07-20T06:47:59.976Z,10.40
2018-07-20T06:50:28.580Z,12.07
2018-07-20T06:52:56.780Z,10.40
2018-07-20T06:55:24.976Z,9.20
2018-07-20T06:57:53.154Z,10.27
2018-07-20T07:00:21.328Z,10.13
2018-07-20T07:02:49.489Z,8.67
2018-07-20T07:05:17.673Z,9.77
2018-07-20T07:07:45.854Z,9.70
2018-07-20T07:10:14.019Z,10.23
2018-07-20T07:12:42.229Z,8.00
2018-07-20T07:15:10.426Z,9.43
2018-07-20T07:17:38.558Z,8.57
2018-07-20T07:20:06.736Z,8.77
2018-07-20T07:22:34.912Z,8.50
2018-07-20T07:25:03.093Z,8.77
2018-07-20T07:27:31.268Z,7.67
2018-07-20T07:29:59.430Z,9.87
2018-07-20T07:32:27.624Z,8.30
2018-07-20T07:34:55.790Z,9.17
2018-07-20T07:37:23.961Z,9.20
2018-07-20T07:39:52.191Z,7.87
2018-07-20T07:42:20.364Z,9.20
2018-07-20T07:44:48.553Z,9.30
2018-07-20T07:47:17.727Z,10.13
2018-07-20T07:49:45.909Z,8.37
2018-07-20T07:52:14.086Z,8.57
2018-07-20T07:54:42.290Z,7.43
2018-07-20T07:57:10.462Z,8.63
2018-07-20T07:59:39.242Z,8.17
2018-07-20T08:02:07.537Z,8.23
2018-07-20T08:04:35.700Z,7.83
2018-07-20T08:07:03.874Z,7.90
2018-07-20T08:09:32.047Z,9.07
2018-07-20T08:12:00.961Z,8.10
2018-07-20T08:14:29.139Z,7.70
2018-07-20T08:16:57.529Z,10.00
2018-07-20T08:19:25.701Z,8.63
2018-07-20T08:21:53.865Z,8.90
2018-07-20T08:24:22.040Z,7.80
2018-07-20T08:26:50.253Z,7.70
2018-07-20T08:29:18.413Z,7.17
2018-07-20T08:31:46.638Z,8.00
2018-07-20T08:34:14.824Z,8.60
2018-07-20T08:36:43.000Z,7.70
2018-07-20T08:39:11.741Z,7.20
2018-07-20T08:41:40.633Z,7.40
2018-07-20T08:44:08.801Z,7.70
2018-07-20T08:46:37.025Z,7.70
2018-07-20T08:49:05.183Z,7.23
2018-07-20T08:51:33.361Z,8.20
2018-07-20T08:54:01.561Z,6.83
2018-07-20T08:56:29.713Z,6.57
2018-07-20T08:58:57.908Z,6.97
2018-07-20T09:01:26.273Z,6.97
2018-07-20T09:03:54.447Z,6.63
2018-07-20T09:06:23.217Z,7.40
2018-07-20T09:08:51.389Z,7.47
2018-07-20T09:11:19.554Z,7.80
2018-07-20T09:13:47.859Z,7.73
2018-07-20T09:16:15.903Z,6.77
2018-07-20T09:18:44.082Z,6.67
2018-07-20T09:21:12.264Z,6.10
2018-07-20T09:23:40.427Z,6.40
2018-07-20T09:26:08.673Z,6.00
2018-07-20T09:28:36.948Z,7.30
2018-07-20T09:31:05.125Z,6.60
2018-07-20T09:33:33.299Z,7.40
2018-07-20T09:36:02.497Z,6.50
2018-07-20T09:38:30.677Z,5.20
2018-07-20T09:40:59.677Z,5.20
2018-07-20T09:43:27.833Z,6.07
2018-07-20T09:45:56.758Z,7.20
2018-07-20T09:48:25.822Z,4.50
2018-07-20T09:50:53.995Z,5.40
2018-07-20T09:53:22.305Z,5.30
2018-07-20T09:55:51.041Z,5.90
2018-07-20T09:58:19.220Z,5.10
2018-07-20T10:00:49.248Z,5.17
2018-07-20T10:03:24.121Z,5.30
2018-07-20T10:05:52.286Z,5.23
2018-07-20T10:08:20.660Z,5.43
2018-07-20T10:10:48.824Z,5.40
2018-07-20T10:13:17.614Z,4.90
2018-07-20T10:15:45.769Z,5.40
2018-07-20T10:18:14.397Z,5.07
2018-07-20T10:20:42.559Z,5.10
2018-07-20T10:23:10.730Z,4.50
2018-07-20T10:25:38.953Z,5.10
2018-07-20T10:28:07.078Z,4.27
2018-07-20T10:30:35.287Z,4.60
2018-07-20T10:33:03.481Z,4.20
2018-07-20T10:35:31.766Z,5.20
2018-07-20T10:37:59.999Z,5.53
2018-07-20T10:40:28.364Z,4.53
2018-07-20T10:42:58.764Z,4.47
2018-07-20T10:45:27.089Z,5.10
2018-07-20T10:47:55.587Z,4.30
2018-07-20T10:50:23.743Z,4.60
2018-07-20T10:52:51.918Z,4.40
2018-07-20T10:55:20.293Z,4.27
2018-07-20T10:57:48.770Z,4.93
2018-07-20T11:00:16.993Z,4.90
2018-07-20T11:02:45.224Z,5.43
2018-07-20T11:05:13.410Z,4.60
2018-07-20T11:07:41.606Z,4.33
2018-07-20T11:10:09.793Z,4.53
2018-07-20T11:12:37.971Z,4.40
2018-07-20T11:15:06.654Z,3.00
2018-07-20T11:17:35.401Z,3.77
2018-07-20T11:20:03.692Z,4.90
2018-07-20T11:22:31.893Z,3.67
2018-07-20T11:25:00.065Z,4.33
2018-07-20T11:27:28.237Z,4.40
2018-07-20T11:29:56.454Z,4.73
2018-07-20T11:32:24.621Z,4.77
2018-07-20T11:34:52.797Z,3.90
2018-07-20T11:37:20.981Z,3.87
2018-07-20T11:39:49.150Z,4.43
2018-07-20T11:42:17.325Z,4.23
2018-07-20T11:44:45.484Z,4.57
2018-07-20T11:47:13.676Z,3.90
2018-07-20T11:49:41.835Z,4.60
2018-07-20T11:52:10.009Z,5.03
2018-07-20T11:54:38.176Z,4.90
2018-07-20T11:57:06.370Z,4.33
2018-07-20T11:59:34.583Z,4.90
2018-07-20T12:02:02.742Z,4.10
2018-07-20T12:04:31.718Z,4.60
2018-07-20T12:06:59.903Z,4.37
2018-07-20T12:09:28.101Z,4.60
2018-07-20T12:11:56.245Z,4.70
2018-07-20T12:14:24.412Z,4.20
2018-07-20T12:16:52.570Z,4.00
2018-07-20T12:19:20.733Z,3.80
2018-07-20T12:21:48.922Z,5.37
2018-07-20T12:24:17.073Z,4.40
2018-07-20T12:26:45.224Z,4.40
2018-07-20T12:29:13.952Z,4.10
2018-07-20T12:31:42.546Z,4.10
2018-07-20T12:34:10.841Z,4.73
2018-07-20T12:36:39.014Z,4.80
2018-07-20T12:39:08.525Z,4.80
2018-07-20T12:41:36.752Z,3.93
2018-07-20T12:44:05.021Z,3.70
2018-07-20T12:46:33.222Z,3.93
2018-07-20T12:51:35.900Z,4.10
2018-07-20T12:54:04.059Z,3.50
2018-07-20T12:56:32.252Z,4.30
2018-07-20T12:59:00.486Z,3.80
2018-07-20T13:01:28.617Z,4.30
2018-07-20T13:03:56.840Z,4.20
2018-07-20T13:06:25.027Z,3.53
2018-07-20T13:08:53.200Z,4.27
2018-07-20T13:11:21.379Z,4.57
2018-07-20T13:13:49.981Z,4.33
2018-07-20T13:16:18.169Z,4.93
2018-07-20T13:18:46.345Z,5.70
2018-07-20T13:21:14.528Z,4.40
2018-07-20T13:23:42.703Z,5.10
2018-07-20T13:26:10.838Z,4.70
2018-07-20T13:28:38.987Z,5.70
2018-07-20T13:31:07.166Z,5.17
2018-07-20T13:33:35.323Z,5.10
2018-07-20T13:36:03.785Z,4.77
2018-07-20T13:38:32.013Z,4.37
2018-07-20T13:41:00.167Z,4.70
2018-07-20T13:43:28.362Z,4.77
2018-07-20T13:45:56.537Z,4.90
2018-07-20T13:48:24.687Z,4.70
2018-07-20T13:50:52.869Z,4.73
2018-07-20T13:53:21.046Z,4.50
2018-07-20T13:55:49.216Z,3.90
2018-07-20T13:58:17.545Z,4.20
2018-07-20T14:00:45.745Z,4.33
2018-07-20T14:03:13.905Z,3.73
2018-07-20T14:05:42.074Z,3.90
2018-07-20T14:08:10.294Z,3.57
2018-07-20T14:10:38.429Z,4.17
2018-07-20T14:13:06.604Z,4.10
2018-07-20T14:15:34.886Z,3.40
2018-07-20T14:18:03.111Z,4.60
2018-07-20T14:20:31.245Z,4.50
2018-07-20T14:22:59.452Z,4.17
2018-07-20T14:25:28.260Z,4.70
2018-07-20T14:27:56.445Z,5.07
2018-07-20T14:30:24.634Z,6.00
2018-07-20T14:32:52.808Z,5.23
2018-07-20T14:35:21.622Z,6.90
2018-07-20T14:37:49.786Z,5.80
2018-07-20T14:40:17.963Z,5.10
2018-07-20T14:42:46.153Z,6.10
2018-07-20T14:45:14.311Z,5.50
2018-07-20T14:47:42.556Z,5.77
2018-07-20T14:50:10.710Z,5.53
2018-07-20T14:52:38.870Z,5.20
2018-07-20T14:55:07.030Z,5.80
2018-07-20T14:57:35.205Z,5.80
2018-07-20T15:00:03.355Z,5.30
2018-07-20T15:02:31.518Z,5.07
2018-07-20T15:04:59.678Z,5.17
2018-07-20T15:07:27.874Z,5.73
2018-07-20T15:09:56.012Z,5.47
2018-07-20T15:12:24.179Z,4.80
2018-07-20T15:14:52.353Z,4.70
2018-07-20T15:17:20.525Z,5.93
2018-07-20T15:19:48.709Z,5.97
2018-07-20T15:22:16.865Z,5.47
2018-07-20T15:24:45.013Z,5.73
2018-07-20T15:27:13.165Z,4.83
2018-07-20T15:29:41.432Z,6.13
2018-07-20T15:32:09.529Z,5.23
2018-07-20T15:34:37.673Z,5.40
2018-07-20T15:37:05.841Z,5.77
2018-07-20T15:39:34.048Z,5.47
2018-07-20T15:42:02.194Z,5.10
2018-07-20T15:44:30.354Z,5.57
2018-07-20T15:46:58.658Z,5.10
2018-07-20T15:49:26.693Z,5.30
2018-07-20T15:53:35.461Z,5.37
2018-07-20T15:54:23.061Z,5.60
2018-07-20T15:56:51.221Z,6.37
2018-07-20T15:59:19.375Z,5.13
2018-07-20T16:01:47.558Z,5.93
2018-07-20T16:04:15.709Z,6.10
2018-07-20T16:06:43.849Z,6.43
2018-07-20T16:09:13.404Z,6.27
2018-07-20T16:11:41.698Z,6.50
2018-07-20T16:14:09.859Z,6.90
2018-07-20T16:16:38.055Z,5.90
2018-07-20T16:19:06.333Z,6.20
2018-07-20T16:21:34.507Z,6.50
2018-07-20T16:24:02.666Z,5.40
2018-07-20T16:26:30.872Z,6.27
2018-07-20T16:28:59.034Z,6.17
2018-07-20T16:31:27.243Z,6.50
2018-07-20T16:33:55.433Z,6.67
2018-07-20T16:36:23.597Z,7.50
2018-07-20T16:38:51.754Z,7.13
2018-07-20T16:41:19.921Z,6.80
2018-07-20T16:43:48.159Z,6.70
2018-07-20T16:46:16.337Z,6.13
2018-07-20T16:48:44.728Z,6.00
2018-07-20T16:51:12.884Z,6.60
2018-07-20T16:53:41.050Z,6.93
2018-07-20T16:56:09.214Z,5.40
2018-07-20T16:58:37.373Z,5.80
2018-07-20T17:01:05.532Z,5.90
2018-07-20T17:03:33.717Z,6.43
2018-07-20T17:06:01.870Z,7.63
2018-07-20T17:08:30.037Z,9.00
2018-07-20T17:10:58.197Z,10.13
2018-07-20T17:13:26.361Z,10.23
2018-07-20T17:15:54.516Z,11.47
2018-07-20T17:18:22.688Z,11.90
2018-07-20T17:20:50.868Z,11.37
2018-07-20T17:23:19.100Z,11.40
2018-07-20T17:25:47.264Z,12.07
2018-07-20T17:28:15.549Z,12.60
2018-07-20T17:30:43.649Z,13.80
2018-07-20T17:33:11.837Z,11.90
2018-07-20T17:35:40.023Z,11.37
2018-07-20T17:38:08.215Z,10.60
2018-07-20T17:40:36.377Z,10.03
2018-07-20T17:43:04.721Z,10.83
2018-07-20T17:45:32.872Z,10.93
2018-07-20T17:48:01.077Z,13.20
2018-07-20T17:50:29.236Z,11.07
2018-07-20T17:52:57.409Z,12.03
2018-07-20T17:55:25.590Z,10.10
2018-07-20T17:57:53.885Z,9.63
2018-07-20T18:00:22.046Z,9.50
2018-07-20T18:02:50.221Z,9.30
2018-07-20T18:05:18.388Z,9.30
2018-07-20T18:07:46.670Z,8.80
2018-07-20T18:10:14.844Z,8.23
2018-07-20T18:12:43.045Z,8.10
2018-07-20T18:15:11.222Z,8.50
2018-07-20T18:17:39.426Z,8.70
2018-07-20T18:20:07.587Z,8.20
2018-07-20T18:22:35.933Z,8.60
2018-07-20T18:25:04.462Z,7.37
2018-07-20T18:27:32.630Z,8.20
2018-07-20T18:30:00.803Z,7.80
2018-07-20T18:32:28.961Z,7.90
2018-07-20T18:34:57.153Z,7.43
2018-07-20T18:37:25.333Z,7.67
2018-07-20T18:39:53.545Z,7.77
2018-07-20T18:42:21.745Z,7.60
2018-07-20T18:44:49.928Z,6.27
2018-07-20T18:47:18.142Z,6.00
2018-07-20T18:49:46.326Z,6.70
2018-07-20T18:52:14.499Z,7.37
2018-07-20T18:54:42.677Z,7.07
2018-07-20T18:57:10.840Z,7.50
2018-07-20T18:59:39.049Z,7.60
2018-07-20T19:02:07.245Z,8.30
2018-07-20T19:04:35.425Z,6.63
2018-07-20T19:07:03.627Z,7.50
2018-07-20T19:09:31.818Z,7.77
2018-07-20T19:11:59.996Z,8.03
2018-07-20T19:14:28.277Z,7.80
2018-07-20T19:16:56.483Z,8.23
2018-07-20T19:19:24.801Z,8.20
2018-07-20T19:21:53.113Z,8.73
2018-07-20T19:24:21.310Z,10.00
2018-07-20T19:26:49.489Z,10.87
2018-07-20T19:29:17.657Z,10.00
2018-07-20T19:31:45.869Z,9.40
2018-07-20T19:34:14.061Z,9.10
2018-07-20T19:36:42.222Z,9.30
2018-07-20T19:39:11.079Z,9.87
2018-07-20T19:41:39.317Z,9.27
2018-07-20T19:44:07.489Z,10.33
2018-07-20T19:46:35.696Z,11.23
2018-07-20T19:49:03.833Z,10.70
2018-07-20T19:51:32.048Z,10.40
2018-07-20T19:54:00.205Z,9.97
2018-07-20T19:56:28.369Z,10.33
2018-07-20T19:58:56.621Z,10.20
2018-07-20T20:01:24.726Z,10.43
2018-07-20T20:03:52.911Z,9.60
2018-07-20T20:06:21.077Z,10.10
2018-07-20T20:08:49.261Z,8.73
2018-07-20T20:11:17.461Z,10.80
2018-07-20T20:13:45.642Z,9.27
2018-07-20T20:16:13.820Z,10.10
2018-07-20T20:18:42.033Z,8.97
2018-07-20T20:21:10.229Z,10.00
2018-07-20T20:23:38.436Z,10.20
2018-07-20T20:26:06.626Z,8.33
2018-07-20T20:28:35.119Z,9.47
2018-07-20T20:31:03.323Z,9.30
2018-07-20T20:33:31.494Z,8.40
2018-07-20T20:35:59.731Z,9.00
2018-07-20T20:38:27.844Z,8.90
2018-07-20T20:40:56.004Z,8.30
2018-07-20T20:43:24.287Z,8.70
2018-07-20T20:45:52.495Z,9.37
2018-07-20T20:48:20.682Z,9.90
2018-07-20T20:50:48.865Z,9.20
2018-07-20T20:53:17.057Z,8.90
2018-07-20T20:55:45.336Z,7.97
2018-07-20T20:58:13.579Z,8.90
2018-07-20T21:00:41.793Z,9.90
2018-07-20T21:03:09.967Z,9.43
2018-07-20T21:05:38.140Z,10.23
2018-07-20T21:08:06.400Z,9.50
2018-07-20T21:10:34.571Z,9.47
2018-07-20T21:13:08.341Z,9.20
2018-07-20T21:15:36.512Z,8.80
2018-07-20T21:18:04.797Z,8.20
2018-07-20T21:20:33.002Z,9.70
2018-07-20T21:23:01.204Z,8.57
2018-07-20T21:25:29.417Z,7.97
2018-07-20T21:27:57.564Z,7.83
2018-07-20T21:30:25.759Z,8.30
2018-07-20T21:32:53.950Z,8.90
2018-07-20T21:35:22.394Z,8.80
2018-07-20T21:37:50.560Z,9.10
2018-07-20T21:40:18.741Z,10.73
2018-07-20T21:42:47.500Z,8.90
2018-07-20T21:45:15.681Z,8.97
2018-07-20T21:47:44.206Z,9.13
2018-07-20T21:50:12.361Z,8.87
2018-07-20T21:52:40.527Z,9.10
2018-07-20T21:55:08.762Z,10.57
2018-07-20T21:57:36.953Z,9.20
2018-07-20T22:00:07.897Z,8.50
2018-07-20T22:02:36.071Z,8.37
2018-07-20T22:05:04.319Z,7.50
2018-07-20T22:07:32.489Z,7.40
2018-07-20T22:10:01.662Z,7.70
2018-07-20T22:12:29.847Z,7.50
2018-07-20T22:14:58.001Z,7.00
2018-07-20T22:17:26.182Z,6.23
2018-07-20T22:19:55.158Z,6.30
2018-07-20T22:22:23.310Z,7.50
2018-07-20T22:24:51.471Z,7.50
2018-07-20T22:27:19.661Z,7.50
2018-07-20T22:29:47.850Z,6.83
2018-07-20T22:32:15.995Z,6.80
2018-07-20T22:34:44.142Z,6.60
2018-07-20T22:37:12.311Z,6.70
2018-07-20T22:39:40.489Z,6.23
2018-07-20T22:42:08.766Z,6.60
2018-07-20T22:44:37.749Z,6.73
2018-07-20T22:47:05.931Z,6.57
2018-07-20T22:49:34.099Z,6.03
2018-07-20T22:52:02.261Z,5.97
2018-07-20T22:54:30.428Z,6.20
2018-07-20T22:56:58.598Z,6.67
2018-07-20T22:59:26.778Z,6.17
2018-07-20T23:01:54.979Z,6.73
2018-07-20T23:04:23.767Z,5.93
2018-07-20T23:06:51.941Z,6.13
2018-07-20T23:09:20.089Z,5.70
2018-07-20T23:11:48.241Z,5.63
2018-07-20T23:14:16.394Z,5.80
2018-07-20T23:16:44.550Z,6.03
2018-07-20T23:19:12.737Z,6.70
2018-07-20T23:21:40.901Z,5.67
2018-07-20T23:24:09.049Z,4.73
2018-07-20T23:26:37.221Z,5.07
2018-07-20T23:29:05.401Z,7.00
2018-07-20T23:31:33.536Z,6.07
2018-07-20T23:34:01.702Z,5.93
2018-07-20T23:36:29.854Z,6.20
2018-07-20T23:38:57.998Z,5.33
2018-07-20T23:41:26.200Z,5.67
2018-07-20T23:43:54.361Z,5.90
2018-07-20T23:46:22.548Z,5.70
2018-07-20T23:48:50.707Z,4.43
2018-07-20T23:51:18.878Z,6.10
2018-07-20T23:53:47.032Z,6.43
2018-07-20T23:56:15.197Z,5.30
2018-07-20T23:58:43.349Z,5.77
